createdAt,value
2018-06-01T00:00:31.835Z,92.9
2018-06-01T00:01:32.505Z,93.3
2018-06-01T00:02:33.175Z,93.1
2018-06-01T00:03:33.847Z,93.1
2018-06-01T00:04:34.518Z,93.0
2018-06-01T00:05:35.187Z,93.7
2018-06-01T00:06:35.860Z,93.6
2018-06-01T00:07:36.534Z,93.5
2018-06-01T00:08:37.205Z,93.5
2018-06-01T00:09:37.877Z,93.8
2018-06-01T00:10:38.549Z,93.6
2018-06-01T00:11:39.269Z,93.8
2018-06-01T00:12:39.941Z,93.8
2018-06-01T00:13:40.614Z,93.8
2018-06-01T00:14:41.285Z,93.6
2018-06-01T00:15:41.953Z,93.4
2018-06-01T00:16:42.624Z,93.4
2018-06-01T00:17:43.293Z,93.6
2018-06-01T00:18:43.968Z,93.6
2018-06-01T00:19:44.635Z,93.6
2018-06-01T00:20:45.317Z,93.3
2018-06-01T00:21:46.014Z,93.8
2018-06-01T00:22:46.685Z,93.4
2018-06-01T00:23:47.358Z,93.6
2018-06-01T00:24:48.030Z,93.6
2018-06-01T00:25:48.708Z,93.9
2018-06-01T00:26:49.664Z,93.7
2018-06-01T00:27:50.337Z,93.3
2018-06-01T00:28:51.009Z,93.4
2018-06-01T00:29:51.681Z,93.4
2018-06-01T00:30:52.352Z,93.4
2018-06-01T00:31:53.023Z,93.5
2018-06-01T00:32:53.694Z,93.4
2018-06-01T00:33:54.366Z,93.3
2018-06-01T00:34:55.037Z,93.3
2018-06-01T00:35:55.708Z,93.4
2018-06-01T00:36:56.380Z,93.7
2018-06-01T00:37:57.049Z,93.7
2018-06-01T00:38:57.720Z,93.4
2018-06-01T00:39:58.395Z,93.7
2018-06-01T00:40:59.061Z,93.9
2018-06-01T00:41:59.732Z,93.7
2018-06-01T00:43:00.403Z,93.4
2018-06-01T00:44:01.074Z,93.4
2018-06-01T00:45:01.747Z,93.5
2018-06-01T00:46:02.420Z,93.9
2018-06-01T00:47:03.092Z,93.9
2018-06-01T00:48:03.763Z,94.3
2018-06-01T00:49:04.433Z,93.9
2018-06-01T00:50:05.104Z,94.2
2018-06-01T00:51:05.775Z,94.0
2018-06-01T00:52:06.447Z,93.7
2018-06-01T00:53:07.117Z,94.0
2018-06-01T00:54:07.789Z,93.9
2018-06-01T00:55:08.460Z,93.6
2018-06-01T00:56:09.130Z,93.6
2018-06-01T00:57:09.802Z,94.2
2018-06-01T00:58:10.474Z,94.2
2018-06-01T00:59:11.143Z,94.0
2018-06-01T01:00:11.812Z,94.5
2018-06-01T01:01:12.482Z,94.6
2018-06-01T01:02:13.152Z,94.3
2018-06-01T01:03:13.823Z,94.6
2018-06-01T01:04:14.496Z,94.6
2018-06-01T01:05:15.168Z,94.7
2018-06-01T01:06:15.840Z,94.9
2018-06-01T01:07:16.511Z,94.8
2018-06-01T01:08:17.181Z,95.1
2018-06-01T01:09:17.851Z,95.0
2018-06-01T01:10:18.522Z,95.2
2018-06-01T01:11:19.194Z,95.7
2018-06-01T01:12:19.867Z,95.3
2018-06-01T01:13:20.544Z,95.5
2018-06-01T01:14:21.246Z,95.5
2018-06-01T01:15:21.918Z,95.7
2018-06-01T01:16:22.589Z,95.6
2018-06-01T01:17:23.259Z,95.1
2018-06-01T01:18:23.930Z,95.7
2018-06-01T01:19:24.604Z,95.8
2018-06-01T01:20:25.271Z,95.9
2018-06-01T01:21:25.941Z,96.3
2018-06-01T01:22:26.612Z,96.2
2018-06-01T01:23:27.285Z,96.4
2018-06-01T01:24:27.962Z,96.6
2018-06-01T01:25:28.631Z,96.3
2018-06-01T01:26:29.299Z,96.8
2018-06-01T01:27:30.022Z,96.6
2018-06-01T01:28:30.691Z,96.6
2018-06-01T01:29:31.399Z,97.1
2018-06-01T01:30:32.072Z,96.6
2018-06-01T01:31:32.743Z,96.8
2018-06-01T01:32:33.413Z,96.7
2018-06-01T01:33:34.084Z,96.8
2018-06-01T01:34:34.755Z,97.0
2018-06-01T01:35:35.425Z,97.5
2018-06-01T01:36:36.095Z,97.4
2018-06-01T01:37:36.765Z,97.4
2018-06-01T01:38:37.438Z,97.5
2018-06-01T01:39:38.111Z,97.2
2018-06-01T01:40:38.782Z,97.7
2018-06-01T01:41:39.454Z,97.8
2018-06-01T01:42:40.124Z,97.5
2018-06-01T01:43:40.793Z,97.3
2018-06-01T01:44:41.465Z,97.0
2018-06-01T01:45:42.137Z,97.6
2018-06-01T01:46:42.808Z,97.7
2018-06-01T01:47:43.479Z,97.9
2018-06-01T01:48:44.155Z,98.1
2018-06-01T01:49:44.824Z,98.0
2018-06-01T01:50:45.528Z,97.8
2018-06-01T01:51:46.198Z,98.1
2018-06-01T01:52:46.869Z,98.3
2018-06-01T01:53:47.539Z,98.1
2018-06-01T01:54:48.209Z,98.2
2018-06-01T01:55:48.881Z,98.0
2018-06-01T01:56:49.550Z,98.6
2018-06-01T01:57:50.220Z,98.6
2018-06-01T01:58:50.895Z,98.1
2018-06-01T01:59:51.565Z,98.2
2018-06-01T02:00:52.236Z,98.3
2018-06-01T02:01:52.906Z,98.3
2018-06-01T02:02:53.584Z,98.3
2018-06-01T02:03:54.247Z,98.3
2018-06-01T02:04:54.918Z,98.4
2018-06-01T02:05:55.590Z,98.2
2018-06-01T02:06:56.261Z,98.5
2018-06-01T02:07:56.933Z,98.2
2018-06-01T02:08:57.603Z,98.5
2018-06-01T02:09:58.273Z,98.6
2018-06-01T02:10:58.944Z,98.8
2018-06-01T02:11:59.614Z,98.3
2018-06-01T02:13:00.284Z,98.4
2018-06-01T02:14:00.955Z,97.7
2018-06-01T02:15:01.627Z,97.4
2018-06-01T02:16:02.298Z,98.0
2018-06-01T02:17:02.971Z,97.5
2018-06-01T02:18:03.643Z,97.3
2018-06-01T02:19:04.311Z,97.3
2018-06-01T02:20:04.982Z,97.3
2018-06-01T02:21:05.651Z,96.9
2018-06-01T02:22:06.323Z,97.0
2018-06-01T02:23:06.993Z,96.7
2018-06-01T02:24:07.664Z,96.9
2018-06-01T02:25:08.341Z,96.9
2018-06-01T02:26:09.008Z,96.3
2018-06-01T02:27:09.677Z,96.3
2018-06-01T02:28:10.388Z,96.2
2018-06-01T02:29:11.054Z,96.4
2018-06-01T02:30:11.725Z,96.0
2018-06-01T02:31:12.394Z,96.2
2018-06-01T02:32:13.065Z,95.7
2018-06-01T02:33:13.739Z,95.4
2018-06-01T02:34:14.408Z,95.2
2018-06-01T02:35:15.080Z,95.4
2018-06-01T02:36:15.753Z,95.2
2018-06-01T02:37:16.422Z,95.3
2018-06-01T02:38:17.133Z,95.3
2018-06-01T02:39:17.803Z,95.0
2018-06-01T02:40:18.538Z,94.6
2018-06-01T02:41:19.223Z,95.0
2018-06-01T02:42:19.894Z,95.2
2018-06-01T02:43:20.563Z,95.1
2018-06-01T02:44:21.233Z,94.7
2018-06-01T02:45:21.904Z,94.3
2018-06-01T02:46:22.577Z,94.3
2018-06-01T02:47:23.281Z,94.4
2018-06-01T02:48:23.954Z,94.7
2018-06-01T02:49:24.625Z,94.3
2018-06-01T02:50:25.299Z,94.3
2018-06-01T02:51:25.972Z,95.0
2018-06-01T02:52:26.640Z,94.4
2018-06-01T02:53:27.312Z,94.7
2018-06-01T02:54:27.983Z,95.1
2018-06-01T02:55:28.655Z,94.9
2018-06-01T02:56:29.327Z,94.5
2018-06-01T02:57:30.042Z,95.0
2018-06-01T02:58:30.749Z,95.5
2018-06-01T02:59:31.423Z,95.5
2018-06-01T03:00:32.096Z,95.4
2018-06-01T03:01:32.767Z,95.6
2018-06-01T03:02:33.437Z,95.7
2018-06-01T03:03:34.113Z,95.6
2018-06-01T03:04:34.819Z,95.5
2018-06-01T03:05:35.489Z,96.0
2018-06-01T03:06:36.162Z,95.8
2018-06-01T03:07:36.834Z,95.9
2018-06-01T03:08:37.507Z,95.7
2018-06-01T03:09:38.180Z,96.2
2018-06-01T03:10:38.856Z,96.4
2018-06-01T03:11:39.527Z,96.1
2018-06-01T03:12:40.201Z,96.5
2018-06-01T03:13:40.913Z,96.2
2018-06-01T03:14:41.585Z,95.9
2018-06-01T03:15:42.260Z,96.4
2018-06-01T03:16:42.936Z,97.0
2018-06-01T03:17:43.604Z,97.2
2018-06-01T03:18:44.276Z,96.8
2018-06-01T03:19:44.948Z,96.8
2018-06-01T03:20:45.622Z,96.6
2018-06-01T03:21:46.296Z,97.4
2018-06-01T03:22:46.969Z,97.4
2018-06-01T03:23:47.641Z,97.1
2018-06-01T03:24:48.315Z,96.9
2018-06-01T03:25:48.986Z,97.4
2018-06-01T03:26:49.678Z,97.8
2018-06-01T03:27:50.335Z,97.3
2018-06-01T03:28:51.007Z,97.4
2018-06-01T03:29:51.689Z,97.6
2018-06-01T03:30:52.356Z,97.5
2018-06-01T03:31:53.031Z,97.6
2018-06-01T03:32:53.704Z,97.6
2018-06-01T03:33:54.380Z,97.9
2018-06-01T03:34:55.054Z,98.3
2018-06-01T03:35:55.731Z,98.3
2018-06-01T03:36:56.402Z,98.2
2018-06-01T03:37:57.077Z,98.4
2018-06-01T03:38:57.796Z,98.5
2018-06-01T03:39:58.423Z,98.8
2018-06-01T03:40:59.098Z,98.6
2018-06-01T03:41:59.771Z,98.1
2018-06-01T03:43:00.445Z,98.1
2018-06-01T03:44:01.118Z,98.4
2018-06-01T03:45:01.794Z,98.2
2018-06-01T03:46:02.468Z,98.1
2018-06-01T03:47:03.141Z,99.1
2018-06-01T03:48:03.819Z,99.0
2018-06-01T03:49:04.489Z,99.1
2018-06-01T03:50:05.162Z,99.1
2018-06-01T03:51:05.836Z,99.1
2018-06-01T03:52:06.512Z,98.2
2018-06-01T03:53:07.189Z,98.1
2018-06-01T03:54:07.862Z,98.5
2018-06-01T03:55:08.539Z,98.8
2018-06-01T03:56:09.213Z,98.2
2018-06-01T03:57:09.887Z,98.3
2018-06-01T03:58:10.565Z,97.4
2018-06-01T03:59:11.239Z,97.8
2018-06-01T04:00:11.915Z,97.9
2018-06-01T04:01:12.629Z,97.6
2018-06-01T04:02:13.304Z,97.6
2018-06-01T04:03:13.978Z,97.9
2018-06-01T04:04:14.653Z,97.4
2018-06-01T04:05:15.328Z,97.4
2018-06-01T04:06:16.005Z,97.1
2018-06-01T04:07:16.680Z,97.3
2018-06-01T04:08:17.357Z,97.3
2018-06-01T04:09:18.029Z,96.8
2018-06-01T04:10:18.706Z,97.0
2018-06-01T04:11:19.379Z,96.9
2018-06-01T04:12:20.054Z,96.5
2018-06-01T04:13:20.730Z,96.7
2018-06-01T04:14:21.403Z,95.7
2018-06-01T04:15:22.080Z,96.5
2018-06-01T04:16:22.793Z,95.7
2018-06-01T04:17:23.505Z,95.6
2018-06-01T04:18:24.181Z,95.4
2018-06-01T04:19:24.866Z,94.8
2018-06-01T04:20:25.533Z,94.5
2018-06-01T04:21:26.207Z,94.7
2018-06-01T04:22:26.882Z,94.9
2018-06-01T04:23:27.558Z,94.3
2018-06-01T04:24:28.232Z,93.9
2018-06-01T04:25:28.909Z,94.0
2018-06-01T04:26:29.583Z,93.6
2018-06-01T04:27:30.263Z,93.5
2018-06-01T04:28:30.938Z,93.1
2018-06-01T04:29:31.610Z,93.4
2018-06-01T04:30:32.284Z,93.0
2018-06-01T04:31:32.961Z,92.8
2018-06-01T04:32:33.662Z,93.0
2018-06-01T04:33:34.313Z,92.8
2018-06-01T04:34:34.990Z,92.4
2018-06-01T04:35:35.663Z,92.1
2018-06-01T04:36:36.337Z,92.1
2018-06-01T04:37:37.019Z,91.7
2018-06-01T04:38:37.690Z,91.7
2018-06-01T04:39:38.366Z,91.3
2018-06-01T04:40:39.042Z,91.0
2018-06-01T04:41:39.716Z,90.3
2018-06-01T04:42:40.392Z,90.3
2018-06-01T04:43:41.068Z,90.8
2018-06-01T04:44:41.744Z,90.2
2018-06-01T04:45:42.420Z,90.0
2018-06-01T04:46:43.096Z,90.0
2018-06-01T04:47:43.772Z,89.3
2018-06-01T04:48:44.447Z,88.8
2018-06-01T04:49:45.124Z,88.3
2018-06-01T04:50:45.839Z,88.5
2018-06-01T04:51:46.516Z,88.3
2018-06-01T04:52:47.192Z,88.6
2018-06-01T04:53:47.868Z,88.5
2018-06-01T04:54:48.544Z,88.6
2018-06-01T04:55:49.219Z,88.1
2018-06-01T04:56:49.897Z,88.1
2018-06-01T04:57:50.571Z,88.1
2018-06-01T04:58:51.246Z,88.1
2018-06-01T04:59:51.923Z,88.1
2018-06-01T05:00:52.598Z,88.1
2018-06-01T05:01:53.275Z,87.6
2018-06-01T05:02:53.953Z,87.7
2018-06-01T05:03:54.629Z,88.0
2018-06-01T05:04:55.302Z,87.4
2018-06-01T05:05:55.980Z,87.8
2018-06-01T05:06:56.658Z,87.5
2018-06-01T05:07:57.332Z,87.4
2018-06-01T05:08:58.010Z,87.2
2018-06-01T05:09:58.685Z,87.2
2018-06-01T05:10:59.363Z,87.1
2018-06-01T05:12:00.045Z,87.3
2018-06-01T05:13:00.721Z,87.0
2018-06-01T05:14:01.401Z,87.0
2018-06-01T05:15:02.073Z,86.3
2018-06-01T05:16:02.752Z,86.2
2018-06-01T05:17:03.465Z,85.9
2018-06-01T05:18:04.141Z,85.5
2018-06-01T05:19:04.815Z,85.1
2018-06-01T05:20:05.491Z,84.6
2018-06-01T05:21:06.168Z,84.5
2018-06-01T05:22:06.845Z,84.0
2018-06-01T05:23:07.520Z,83.9
2018-06-01T05:24:08.196Z,83.1
2018-06-01T05:25:08.872Z,83.1
2018-06-01T05:26:09.550Z,83.2
2018-06-01T05:27:10.225Z,83.1
2018-06-01T05:28:10.902Z,83.4
2018-06-01T05:29:11.578Z,82.5
2018-06-01T05:30:12.255Z,81.7
2018-06-01T05:31:12.932Z,81.3
2018-06-01T05:32:13.607Z,81.5
2018-06-01T05:33:14.322Z,81.8
2018-06-01T05:34:15.000Z,81.9
2018-06-01T05:35:15.677Z,81.9
2018-06-01T05:36:16.353Z,81.6
2018-06-01T05:37:17.030Z,81.1
2018-06-01T05:38:17.705Z,80.3
2018-06-01T05:39:18.381Z,80.3
2018-06-01T05:40:19.059Z,79.8
2018-06-01T05:41:19.773Z,79.5
2018-06-01T05:42:20.449Z,79.2
2018-06-01T05:43:21.126Z,78.8
2018-06-01T05:44:21.804Z,79.1
2018-06-01T05:45:22.480Z,78.6
2018-06-01T05:46:23.158Z,78.3
2018-06-01T05:47:23.851Z,78.1
2018-06-01T05:48:24.542Z,78.5
2018-06-01T05:49:25.218Z,78.0
2018-06-01T05:50:25.896Z,77.8
2018-06-01T05:51:26.575Z,77.2
2018-06-01T05:52:27.256Z,77.4
2018-06-01T05:53:27.929Z,77.2
2018-06-01T05:54:28.608Z,76.7
2018-06-01T05:55:29.284Z,76.7
2018-06-01T05:56:30.000Z,77.1
2018-06-01T05:57:30.680Z,77.2
2018-06-01T05:58:31.353Z,76.6
2018-06-01T05:59:32.030Z,77.1
2018-06-01T06:00:32.707Z,77.0
2018-06-01T06:01:33.386Z,77.1
2018-06-01T06:02:34.065Z,76.7
2018-06-01T06:03:34.741Z,76.8
2018-06-01T06:04:35.435Z,76.5
2018-06-01T06:05:36.099Z,76.2
2018-06-01T06:06:36.776Z,76.7
2018-06-01T06:07:37.472Z,77.2
2018-06-01T06:08:38.131Z,76.8
2018-06-01T06:09:38.809Z,76.9
2018-06-01T06:10:39.489Z,76.4
2018-06-01T06:11:40.163Z,76.4
2018-06-01T06:12:40.839Z,76.3
2018-06-01T06:13:41.517Z,76.3
2018-06-01T06:14:42.193Z,76.1
2018-06-01T06:15:42.872Z,76.0
2018-06-01T06:16:43.549Z,76.6
2018-06-01T06:17:44.235Z,76.5
2018-06-01T06:18:44.903Z,76.6
2018-06-01T06:19:45.584Z,76.2
2018-06-01T06:20:46.266Z,75.6
2018-06-01T06:21:46.939Z,76.0
2018-06-01T06:22:47.617Z,75.9
2018-06-01T06:23:48.294Z,75.3
2018-06-01T06:24:48.974Z,75.3
2018-06-01T06:25:49.654Z,75.3
2018-06-01T06:26:50.367Z,75.3
2018-06-01T06:27:51.045Z,75.2
2018-06-01T06:28:51.723Z,74.7
2018-06-01T06:29:52.401Z,74.3
2018-06-01T06:30:53.081Z,74.5
2018-06-01T06:31:53.759Z,73.9
2018-06-01T06:32:54.438Z,73.6
2018-06-01T06:33:55.117Z,74.2
2018-06-01T06:34:55.794Z,73.9
2018-06-01T06:35:56.475Z,73.5
2018-06-01T06:36:57.153Z,74.0
2018-06-01T06:37:57.831Z,73.2
2018-06-01T06:38:58.510Z,72.4
2018-06-01T06:39:59.227Z,73.3
2018-06-01T06:40:59.903Z,73.2
2018-06-01T06:42:00.582Z,73.0
2018-06-01T06:43:01.262Z,72.7
2018-06-01T06:44:01.940Z,72.6
2018-06-01T06:45:02.619Z,73.0
2018-06-01T06:46:03.297Z,72.5
2018-06-01T06:47:03.978Z,72.5
2018-06-01T06:48:04.657Z,72.0
2018-06-01T06:49:05.336Z,71.5
2018-06-01T06:50:06.018Z,70.8
2018-06-01T06:51:06.692Z,70.0
2018-06-01T06:52:07.372Z,70.0
2018-06-01T06:53:08.054Z,69.8
2018-06-01T06:54:08.732Z,69.6
2018-06-01T06:55:09.421Z,69.7
2018-06-01T06:56:10.128Z,69.6
2018-06-01T06:57:10.807Z,69.8
2018-06-01T06:58:11.489Z,69.2
2018-06-01T06:59:12.171Z,69.0
2018-06-01T07:00:12.888Z,68.8
2018-06-01T07:01:13.568Z,68.2
2018-06-01T07:02:14.247Z,67.8
2018-06-01T07:03:14.928Z,67.7
2018-06-01T07:04:15.608Z,66.8
2018-06-01T07:05:16.289Z,65.8
2018-06-01T07:06:16.969Z,65.0
2018-06-01T07:07:17.647Z,65.0
2018-06-01T07:08:18.327Z,65.1
2018-06-01T07:09:19.009Z,64.8
2018-06-01T07:10:19.688Z,64.6
2018-06-01T07:11:20.369Z,64.7
2018-06-01T07:12:21.047Z,63.9
2018-06-01T07:13:21.727Z,63.7
2018-06-01T07:14:22.410Z,64.0
2018-06-01T07:15:23.090Z,64.4
2018-06-01T07:16:23.769Z,64.6
2018-06-01T07:17:24.450Z,64.3
2018-06-01T07:18:25.129Z,64.3
2018-06-01T07:19:25.811Z,64.4
2018-06-01T07:20:26.556Z,63.9
2018-06-01T07:21:27.175Z,64.0
2018-06-01T07:22:27.880Z,63.7
2018-06-01T07:23:28.537Z,63.7
2018-06-01T07:24:29.222Z,63.4
2018-06-01T07:25:29.905Z,62.9
2018-06-01T07:26:30.582Z,62.3
2018-06-01T07:27:31.263Z,62.0
2018-06-01T07:28:31.944Z,61.5
2018-06-01T07:29:32.631Z,61.4
2018-06-01T07:30:33.307Z,59.9
2018-06-01T07:31:33.990Z,59.0
2018-06-01T07:32:34.671Z,56.5
2018-06-01T07:33:35.353Z,55.0
2018-06-01T07:34:36.042Z,53.8
2018-06-01T07:35:36.719Z,52.1
2018-06-01T07:36:37.389Z,50.5
2018-06-01T07:37:38.059Z,49.1
2018-06-01T07:38:38.730Z,48.4
2018-06-01T07:39:39.401Z,47.7
2018-06-01T07:40:40.073Z,47.2
2018-06-01T07:41:40.746Z,47.2
2018-06-01T07:42:41.418Z,47.0
2018-06-01T07:43:42.091Z,46.9
2018-06-01T07:44:42.761Z,47.7
2018-06-01T07:45:43.433Z,47.9
2018-06-01T07:46:44.105Z,47.8
2018-06-01T07:47:44.776Z,47.0
2018-06-01T07:48:45.488Z,46.1
2018-06-01T07:49:46.158Z,44.3
2018-06-01T07:50:46.831Z,43.9
2018-06-01T07:51:47.503Z,43.9
2018-06-01T07:52:48.178Z,43.5
2018-06-01T07:53:48.856Z,42.8
2018-06-01T07:54:49.533Z,41.4
2018-06-01T07:55:50.201Z,40.4
2018-06-01T07:56:50.876Z,39.3
2018-06-01T07:57:51.547Z,39.0
2018-06-01T07:58:52.220Z,37.7
2018-06-01T07:59:52.892Z,36.7
2018-06-01T08:00:53.569Z,36.0
2018-06-01T08:01:54.289Z,35.3
2018-06-01T08:02:54.964Z,36.6
2018-06-01T08:03:55.638Z,36.4
2018-06-01T08:04:56.311Z,36.4
2018-06-01T08:05:56.985Z,37.0
2018-06-01T08:06:57.657Z,36.9
2018-06-01T08:07:58.329Z,36.4
2018-06-01T08:08:59.003Z,36.6
2018-06-01T08:09:59.677Z,38.0
2018-06-01T08:11:00.352Z,39.0
2018-06-01T08:12:01.071Z,40.3
2018-06-01T08:13:01.739Z,42.4
2018-06-01T08:14:02.413Z,43.0
2018-06-01T08:15:03.083Z,44.5
2018-06-01T08:16:03.756Z,45.4
2018-06-01T08:17:04.681Z,46.2
2018-06-01T08:18:05.352Z,46.1
2018-06-01T08:19:06.027Z,46.2
2018-06-01T08:20:06.711Z,46.2
2018-06-01T08:21:07.376Z,46.9
2018-06-01T08:22:08.050Z,48.6
2018-06-01T08:23:08.724Z,48.9
2018-06-01T08:24:09.398Z,48.9
2018-06-01T08:25:10.072Z,49.3
2018-06-01T08:26:10.744Z,50.1
2018-06-01T08:27:11.415Z,50.8
2018-06-01T08:28:12.088Z,51.4
2018-06-01T08:29:12.761Z,52.0
2018-06-01T08:30:13.434Z,52.5
2018-06-01T08:31:14.110Z,53.0
2018-06-01T08:32:14.786Z,54.0
2018-06-01T08:33:15.453Z,54.5
2018-06-01T08:34:16.126Z,54.5
2018-06-01T08:35:16.800Z,54.0
2018-06-01T08:36:17.478Z,54.3
2018-06-01T08:37:18.181Z,55.4
2018-06-01T08:38:18.853Z,56.0
2018-06-01T08:39:19.540Z,55.9
2018-06-01T08:40:20.234Z,55.9
2018-06-01T08:41:20.905Z,55.9
2018-06-01T08:42:21.579Z,55.8
2018-06-01T08:43:22.252Z,55.8
2018-06-01T08:44:22.923Z,56.0
2018-06-01T08:45:23.594Z,56.5
2018-06-01T08:46:24.275Z,56.0
2018-06-01T08:47:24.938Z,55.7
2018-06-01T08:48:25.611Z,54.4
2018-06-01T08:49:26.282Z,54.2
2018-06-01T08:50:26.960Z,52.0
2018-06-01T08:51:27.627Z,50.4
2018-06-01T08:52:28.304Z,49.8
2018-06-01T08:53:29.012Z,49.3
2018-06-01T08:54:29.682Z,48.5
2018-06-01T08:55:30.354Z,48.5
2018-06-01T08:56:31.026Z,48.7
2018-06-01T08:57:31.700Z,47.4
2018-06-01T08:58:32.372Z,46.9
2018-06-01T08:59:33.045Z,46.3
2018-06-01T09:00:33.719Z,46.6
2018-06-01T09:01:34.387Z,46.2
2018-06-01T09:02:35.059Z,47.0
2018-06-01T09:03:35.732Z,47.3
2018-06-01T09:04:36.449Z,47.2
2018-06-01T09:05:37.140Z,47.0
2018-06-01T09:06:37.811Z,47.7
2018-06-01T09:07:38.483Z,47.9
2018-06-01T09:08:39.157Z,48.3
2018-06-01T09:09:39.829Z,47.5
2018-06-01T09:10:40.501Z,47.6
2018-06-01T09:11:41.173Z,46.9
2018-06-01T09:12:41.845Z,47.7
2018-06-01T09:13:42.518Z,47.7
2018-06-01T09:14:43.193Z,47.6
2018-06-01T09:15:43.863Z,47.0
2018-06-01T09:16:44.590Z,46.3
2018-06-01T09:17:45.209Z,45.8
2018-06-01T09:18:45.881Z,45.2
2018-06-01T09:19:46.554Z,45.6
2018-06-01T09:20:47.227Z,45.0
2018-06-01T09:21:47.900Z,44.4
2018-06-01T09:22:48.575Z,44.5
2018-06-01T09:23:49.249Z,44.6
2018-06-01T09:24:49.923Z,44.8
2018-06-01T09:25:50.597Z,44.4
2018-06-01T09:26:51.270Z,44.4
2018-06-01T09:27:51.941Z,44.2
2018-06-01T09:28:52.612Z,44.3
2018-06-01T09:29:53.286Z,44.1
2018-06-01T09:30:53.959Z,42.7
2018-06-01T09:31:54.672Z,42.2
2018-06-01T09:32:55.391Z,42.1
2018-06-01T09:33:56.062Z,41.8
2018-06-01T09:34:56.734Z,40.4
2018-06-01T09:35:57.406Z,40.0
2018-06-01T09:36:58.114Z,40.7
2018-06-01T09:37:58.782Z,40.1
2018-06-01T09:38:59.454Z,40.0
2018-06-01T09:40:00.125Z,39.7
2018-06-01T09:41:00.796Z,39.5
2018-06-01T09:42:01.469Z,39.0
2018-06-01T09:43:02.143Z,39.2
2018-06-01T09:44:02.814Z,38.8
2018-06-01T09:45:03.521Z,38.3
2018-06-01T09:46:04.192Z,37.8
2018-06-01T09:47:04.863Z,37.7
2018-06-01T09:48:05.535Z,38.1
2018-06-01T09:49:06.205Z,39.1
2018-06-01T09:50:06.914Z,39.4
2018-06-01T09:51:07.585Z,39.9
2018-06-01T09:52:08.253Z,40.2
2018-06-01T09:53:08.926Z,41.0
2018-06-01T09:54:09.600Z,40.9
2018-06-01T09:55:10.267Z,40.6
2018-06-01T09:56:10.939Z,41.0
2018-06-01T09:57:11.610Z,40.9
2018-06-01T09:58:12.282Z,40.7
2018-06-01T09:59:12.989Z,41.1
2018-06-01T10:00:13.661Z,41.8
2018-06-01T10:01:14.331Z,41.7
2018-06-01T10:02:15.003Z,42.0
2018-06-01T10:03:15.673Z,42.9
2018-06-01T10:04:16.348Z,43.1
2018-06-01T10:05:17.020Z,43.4
2018-06-01T10:06:17.691Z,43.2
2018-06-01T10:07:18.362Z,43.3
2018-06-01T10:08:19.034Z,42.8
2018-06-01T10:09:19.704Z,42.5
2018-06-01T10:10:20.376Z,42.4
2018-06-01T10:11:21.052Z,42.0
2018-06-01T10:12:21.720Z,42.2
2018-06-01T10:13:22.428Z,42.0
2018-06-01T10:14:23.135Z,41.8
2018-06-01T10:15:23.804Z,41.1
2018-06-01T10:16:24.476Z,40.5
2018-06-01T10:17:25.146Z,40.9
2018-06-01T10:18:25.824Z,41.1
2018-06-01T10:19:26.492Z,40.9
2018-06-01T10:20:27.163Z,41.4
2018-06-01T10:21:27.833Z,41.7
2018-06-01T10:22:28.503Z,42.2
2018-06-01T10:23:29.174Z,42.3
2018-06-01T10:24:29.844Z,42.9
2018-06-01T10:25:30.515Z,43.9
2018-06-01T10:26:31.233Z,44.4
2018-06-01T10:27:31.922Z,44.6
2018-06-01T10:28:32.594Z,44.7
2018-06-01T10:29:33.265Z,45.2
2018-06-01T10:30:33.936Z,44.5
2018-06-01T10:31:34.607Z,44.4
2018-06-01T10:32:35.278Z,45.2
2018-06-01T10:33:35.946Z,45.3
2018-06-01T10:34:36.619Z,46.2
2018-06-01T10:35:37.291Z,46.6
2018-06-01T10:36:37.962Z,46.2
2018-06-01T10:37:38.631Z,46.7
2018-06-01T10:38:39.304Z,46.4
2018-06-01T10:39:39.976Z,46.5
2018-06-01T10:40:40.644Z,46.8
2018-06-01T10:41:41.314Z,47.5
2018-06-01T10:42:41.985Z,47.9
2018-06-01T10:43:42.656Z,47.8
2018-06-01T10:44:43.329Z,47.9
2018-06-01T10:45:44.034Z,48.2
2018-06-01T10:46:44.705Z,48.2
2018-06-01T10:47:45.376Z,48.8
2018-06-01T10:48:46.047Z,49.2
2018-06-01T10:49:46.717Z,49.8
2018-06-01T10:50:47.387Z,50.0
2018-06-01T10:51:48.057Z,49.7
2018-06-01T10:52:48.727Z,49.1
2018-06-01T10:53:49.435Z,48.9
2018-06-01T10:54:50.105Z,49.0
2018-06-01T10:55:50.776Z,49.0
2018-06-01T10:56:51.448Z,48.9
2018-06-01T10:57:52.120Z,48.9
2018-06-01T10:58:52.826Z,49.3
2018-06-01T10:59:53.498Z,50.0
2018-06-01T11:00:54.170Z,50.2
2018-06-01T11:01:54.838Z,50.0
2018-06-01T11:02:55.507Z,50.2
2018-06-01T11:03:56.180Z,50.1
2018-06-01T11:04:56.849Z,50.0
2018-06-01T11:05:57.555Z,50.0
2018-06-01T11:06:58.228Z,50.5
2018-06-01T11:07:58.899Z,50.1
2018-06-01T11:08:59.569Z,49.5
2018-06-01T11:10:00.241Z,48.9
2018-06-01T11:11:00.915Z,49.1
2018-06-01T11:12:01.626Z,48.1
2018-06-01T11:13:02.333Z,48.3
2018-06-01T11:14:03.008Z,48.4
2018-06-01T11:15:03.680Z,48.2
2018-06-01T11:16:04.349Z,48.3
2018-06-01T11:17:05.020Z,47.2
2018-06-01T11:18:05.695Z,48.1
2018-06-01T11:19:06.412Z,48.2
2018-06-01T11:20:07.082Z,47.6
2018-06-01T11:21:07.752Z,47.5
2018-06-01T11:22:08.422Z,47.7
2018-06-01T11:23:09.093Z,47.9
2018-06-01T11:24:09.801Z,47.8
2018-06-01T11:25:10.471Z,48.3
2018-06-01T11:26:11.140Z,48.6
2018-06-01T11:27:11.815Z,48.2
2018-06-01T11:28:12.519Z,48.9
2018-06-01T11:29:13.192Z,48.7
2018-06-01T11:30:13.864Z,49.1
2018-06-01T11:31:14.536Z,50.2
2018-06-01T11:32:15.221Z,50.1
2018-06-01T11:33:15.874Z,50.3
2018-06-01T11:34:16.544Z,50.0
2018-06-01T11:35:17.216Z,50.0
2018-06-01T11:36:17.885Z,49.9
2018-06-01T11:37:18.559Z,49.7
2018-06-01T11:38:19.257Z,49.4
2018-06-01T11:39:19.902Z,48.8
2018-06-01T11:40:20.570Z,48.2
2018-06-01T11:41:21.248Z,48.8
2018-06-01T11:42:21.910Z,47.9
2018-06-01T11:43:22.616Z,47.6
2018-06-01T11:44:23.289Z,46.7
2018-06-01T11:45:23.957Z,47.5
2018-06-01T11:46:24.629Z,48.1
2018-06-01T11:47:25.298Z,48.3
2018-06-01T11:48:25.968Z,48.4
2018-06-01T11:49:26.640Z,48.5
2018-06-01T11:50:27.308Z,49.1
2018-06-01T11:51:28.012Z,49.0
2018-06-01T11:52:28.648Z,48.9
2018-06-01T11:53:29.320Z,48.9
2018-06-01T11:54:29.991Z,48.9
2018-06-01T11:55:30.696Z,49.4
2018-06-01T11:56:31.368Z,49.4
2018-06-01T11:57:32.038Z,49.3
2018-06-01T11:58:32.748Z,49.1
2018-06-01T11:59:33.419Z,49.1
2018-06-01T12:00:34.094Z,49.0
2018-06-01T12:01:34.759Z,49.1
2018-06-01T12:02:35.435Z,49.1
2018-06-01T12:03:36.150Z,49.2
2018-06-01T12:04:36.807Z,49.4
2018-06-01T12:05:37.476Z,49.9
2018-06-01T12:06:38.148Z,50.4
2018-06-01T12:07:38.819Z,50.7
2018-06-01T12:08:39.490Z,50.8
2018-06-01T12:09:40.158Z,50.9
2018-06-01T12:10:40.829Z,51.2
2018-06-01T12:11:41.497Z,51.1
2018-06-01T12:12:42.166Z,51.3
2018-06-01T12:13:42.837Z,52.1
2018-06-01T12:14:43.508Z,51.6
2018-06-01T12:15:44.177Z,51.9
2018-06-01T12:16:44.851Z,52.2
2018-06-01T12:17:45.580Z,52.6
2018-06-01T12:18:46.187Z,52.2
2018-06-01T12:19:46.857Z,51.3
2018-06-01T12:20:47.565Z,51.5
2018-06-01T12:21:48.237Z,51.4
2018-06-01T12:22:48.907Z,51.2
2018-06-01T12:23:49.576Z,51.1
2018-06-01T12:24:50.244Z,50.8
2018-06-01T12:25:50.915Z,51.0
2018-06-01T12:26:51.584Z,51.0
2018-06-01T12:27:52.254Z,51.0
2018-06-01T12:28:52.924Z,51.1
2018-06-01T12:29:53.595Z,50.8
2018-06-01T12:30:54.267Z,50.4
2018-06-01T12:31:54.935Z,50.5
2018-06-01T12:32:55.604Z,51.0
2018-06-01T12:33:56.273Z,51.5
2018-06-01T12:34:56.947Z,51.1
2018-06-01T12:35:57.612Z,51.2
2018-06-01T12:36:58.293Z,51.5
2018-06-01T12:37:58.990Z,51.3
2018-06-01T12:38:59.659Z,51.9
2018-06-01T12:40:00.326Z,51.4
2018-06-01T12:41:00.995Z,51.4
2018-06-01T12:42:01.665Z,51.4
2018-06-01T12:43:02.335Z,52.1
2018-06-01T12:44:03.008Z,52.0
2018-06-01T12:45:03.679Z,52.3
2018-06-01T12:46:04.350Z,52.3
2018-06-01T12:47:05.018Z,52.3
2018-06-01T12:48:05.686Z,52.1
2018-06-01T12:49:06.355Z,52.4
2018-06-01T12:50:07.075Z,52.3
2018-06-01T12:51:07.744Z,52.2
2018-06-01T12:52:08.417Z,52.3
2018-06-01T12:53:09.119Z,52.2
2018-06-01T12:54:09.840Z,51.9
2018-06-01T12:55:10.454Z,51.6
2018-06-01T12:56:11.122Z,51.5
2018-06-01T12:57:11.793Z,51.7
2018-06-01T12:58:12.460Z,51.9
2018-06-01T12:59:13.168Z,52.3
2018-06-01T13:00:13.835Z,52.2
2018-06-01T13:01:14.505Z,50.7
2018-06-01T13:02:15.174Z,50.4
2018-06-01T13:03:15.842Z,51.0
2018-06-01T13:04:16.510Z,50.7
2018-06-01T13:05:17.179Z,50.3
2018-06-01T13:06:17.849Z,51.0
2018-06-01T13:07:18.556Z,50.7
2018-06-01T13:08:19.225Z,50.5
2018-06-01T13:09:19.893Z,50.7
2018-06-01T13:10:20.562Z,50.6
2018-06-01T13:11:21.229Z,50.7
2018-06-01T13:12:21.898Z,49.6
2018-06-01T13:13:22.569Z,48.9
2018-06-01T13:14:23.274Z,49.2
2018-06-01T13:15:23.942Z,49.3
2018-06-01T13:16:24.610Z,49.9
2018-06-01T13:17:25.280Z,50.6
2018-06-01T13:18:25.986Z,49.8
2018-06-01T13:19:26.658Z,49.3
2018-06-01T13:20:27.387Z,49.9
2018-06-01T13:21:28.061Z,49.6
2018-06-01T13:22:28.728Z,49.7
2018-06-01T13:23:29.400Z,50.5
2018-06-01T13:24:30.072Z,50.6
2018-06-01T13:25:30.741Z,50.1
2018-06-01T13:26:31.409Z,50.0
2018-06-01T13:27:32.077Z,50.2